createdAt,value
2023-02-16T00:02:01.896Z,2.25
2023-02-16T00:07:03.379Z,2.15
2023-02-16T00:12:18.663Z,2.29
2023-02-16T00:17:20.195Z,2.28
2023-02-16T00:22:21.822Z,2.44
2023-02-16T00:27:23.518Z,2.37
2023-02-16T00:32:25.234Z,2.08
2023-02-16T00:37:26.985Z,2.21
2023-02-16T00:42:32.729Z,1.95
2023-02-16T00:47:39.967Z,2.25
2023-02-16T00:52:41.596Z,2.02
2023-02-16T00:58:11.646Z,2.20
2023-02-16T01:03:17.199Z,1.92
2023-02-16T01:08:18.784Z,1.72
2023-02-16T01:13:21.455Z,1.77
2023-02-16T01:18:23.057Z,1.99
2023-02-16T01:23:24.750Z,2.06
2023-02-16T01:28:26.550Z,1.95
2023-02-16T01:33:28.303Z,1.77
2023-02-16T01:38:29.908Z,1.96
2023-02-16T01:43:44.509Z,1.74
2023-02-16T01:48:46.037Z,1.89
2023-02-16T01:53:52.398Z,1.99
2023-02-16T01:58:56.620Z,1.94
2023-02-16T02:03:58.318Z,2.65
2023-02-16T02:09:17.458Z,2.29
2023-02-16T02:14:30.579Z,2.61
2023-02-16T02:19:43.764Z,2.43
2023-02-16T02:24:54.060Z,2.29
2023-02-16T02:30:20.558Z,2.29
2023-02-16T02:35:43.159Z,2.34
2023-02-16T02:40:59.306Z,2.67
2023-02-16T02:46:07.681Z,2.20
2023-02-16T02:51:09.313Z,2.06
2023-02-16T02:56:14.794Z,2.47
2023-02-16T03:01:18.813Z,2.83
2023-02-16T03:06:26.199Z,2.17
2023-02-16T03:11:28.868Z,2.48
2023-02-16T03:16:44.603Z,2.70
2023-02-16T03:21:46.256Z,2.55
2023-02-16T03:26:49.150Z,2.61
2023-02-16T03:31:53.000Z,2.60
2023-02-16T03:36:57.508Z,2.80
2023-02-16T03:41:59.131Z,2.63
2023-02-16T03:47:00.591Z,2.84
2023-02-16T03:52:02.010Z,2.89
2023-02-16T03:57:03.516Z,3.06
2023-02-16T04:02:05.098Z,2.77
2023-02-16T04:07:06.531Z,2.75
2023-02-16T04:12:09.036Z,2.44
2023-02-16T04:17:10.649Z,2.49
2023-02-16T04:22:12.073Z,2.13
2023-02-16T04:27:13.490Z,2.09
2023-02-16T04:32:15.072Z,1.73
2023-02-16T04:37:16.640Z,1.65
2023-02-16T04:42:18.117Z,1.87
2023-02-16T04:47:19.691Z,1.85
2023-02-16T04:52:21.151Z,1.87
2023-02-16T04:57:22.659Z,1.69
2023-02-16T05:02:24.200Z,1.73
2023-02-16T05:07:25.733Z,1.61
2023-02-16T05:12:27.467Z,1.88
2023-02-16T05:17:29.079Z,1.92
2023-02-16T05:22:31.086Z,1.84
2023-02-16T05:27:32.744Z,1.48
2023-02-16T05:32:34.200Z,1.63
2023-02-16T05:37:35.738Z,1.36
2023-02-16T05:42:37.208Z,1.61
2023-02-16T05:47:38.651Z,2.15
2023-02-16T05:52:40.107Z,2.55
2023-02-16T05:57:41.528Z,2.37
2023-02-16T06:02:43.187Z,1.65
2023-02-16T06:07:44.850Z,1.57
2023-02-16T06:12:46.343Z,1.55
2023-02-16T06:17:47.809Z,1.73
2023-02-16T06:22:49.264Z,1.93
2023-02-16T06:27:50.752Z,1.93
2023-02-16T06:32:52.260Z,1.90
2023-02-16T06:37:54.132Z,1.54
2023-02-16T06:42:55.748Z,1.66
2023-02-16T06:47:57.244Z,1.30
2023-02-16T06:52:58.790Z,1.27
2023-02-16T06:58:00.423Z,1.21
2023-02-16T07:03:02.269Z,1.32
2023-02-16T07:08:04.014Z,1.31
2023-02-16T07:13:05.551Z,1.50
2023-02-16T07:18:07.003Z,1.69
2023-02-16T07:23:08.518Z,1.76
2023-02-16T07:28:09.947Z,1.81
2023-02-16T07:33:11.543Z,1.77
2023-02-16T07:38:13.079Z,1.71
2023-02-16T07:43:14.473Z,1.87
2023-02-16T07:48:16.152Z,2.38
2023-02-16T07:53:18.055Z,2.32
2023-02-16T07:58:19.692Z,2.63
2023-02-16T08:03:21.155Z,2.47
2023-02-16T08:08:22.699Z,2.46
2023-02-16T08:13:24.510Z,2.32
2023-02-16T08:18:25.944Z,2.30
2023-02-16T08:23:27.435Z,2.72
2023-02-16T08:28:29.164Z,3.03
2023-02-16T08:33:30.938Z,2.97
2023-02-16T08:38:32.450Z,3.64
2023-02-16T08:43:33.933Z,3.61
2023-02-16T08:48:35.386Z,4.28
2023-02-16T08:53:36.873Z,4.32
2023-02-16T08:58:38.504Z,3.68
2023-02-16T09:03:41.467Z,3.54
2023-02-16T09:08:44.144Z,3.79
2023-02-16T09:13:45.883Z,3.91
2023-02-16T09:18:47.734Z,4.08
2023-02-16T09:23:50.544Z,4.14
2023-02-16T09:28:52.602Z,4.38
2023-02-16T09:34:01.245Z,4.84
2023-02-16T09:39:02.751Z,4.92
2023-02-16T09:44:31.554Z,5.05
2023-02-16T09:49:38.864Z,5.07
2023-02-16T09:54:52.584Z,4.99
2023-02-16T10:00:20.334Z,5.07
2023-02-16T10:05:29.558Z,5.34
2023-02-16T10:10:43.320Z,5.21
2023-02-16T10:15:46.044Z,5.06
2023-02-16T10:20:51.651Z,4.85
2023-02-16T10:26:02.087Z,4.50
2023-02-16T10:31:27.943Z,4.43
2023-02-16T10:37:00.052Z,4.97
2023-02-16T10:42:39.126Z,5.36
2023-02-16T10:47:42.364Z,5.25
2023-02-16T10:52:44.721Z,5.34
2023-02-16T10:57:53.710Z,5.55
2023-02-16T11:02:56.361Z,5.77
2023-02-16T11:07:59.772Z,5.86
2023-02-16T11:13:01.246Z,5.79
2023-02-16T11:18:18.402Z,5.85
2023-02-16T11:23:28.731Z,5.88
2023-02-16T11:28:35.387Z,5.96
2023-02-16T11:33:38.128Z,6.06
2023-02-16T11:38:39.706Z,6.23
2023-02-16T11:43:42.638Z,6.33
2023-02-16T11:48:46.376Z,6.51
2023-02-16T11:54:00.254Z,6.51
2023-02-16T11:59:06.799Z,6.56
2023-02-16T12:04:11.259Z,6.64
2023-02-16T12:09:45.769Z,6.65
2023-02-16T12:15:06.047Z,6.59
2023-02-16T12:20:38.334Z,6.68
2023-02-16T12:25:50.935Z,6.69
2023-02-16T12:31:08.752Z,6.67
2023-02-16T12:36:32.507Z,6.73
2023-02-16T12:42:03.574Z,6.69
2023-02-16T12:47:10.973Z,6.79
2023-02-16T12:52:23.998Z,6.54
2023-02-16T12:57:30.987Z,6.66
2023-02-16T13:02:42.347Z,6.69
2023-02-16T13:07:47.084Z,6.68
2023-02-16T13:12:55.049Z,6.78
2023-02-16T13:18:01.856Z,6.67
2023-02-16T13:23:24.406Z,6.84
2023-02-16T13:28:47.175Z,6.84
2023-02-16T13:33:54.924Z,6.78
2023-02-16T13:39:05.319Z,6.56
2023-02-16T13:44:19.117Z,6.61
2023-02-16T13:49:32.284Z,6.47
2023-02-16T13:54:38.319Z,6.40
2023-02-16T13:59:39.865Z,6.47
2023-02-16T14:05:03.172Z,6.37
2023-02-16T14:10:05.801Z,6.37
2023-02-16T14:15:19.512Z,6.27
2023-02-16T14:20:21.002Z,6.27
2023-02-16T14:25:22.413Z,6.38
2023-02-16T14:30:47.687Z,6.36
2023-02-16T14:35:58.493Z,6.47
2023-02-16T14:41:03.290Z,6.42
2023-02-16T14:46:31.189Z,6.25
2023-02-16T14:51:51.384Z,6.41
2023-02-16T14:57:07.272Z,6.38
2023-02-16T15:02:32.354Z,6.39
2023-02-16T15:07:33.981Z,6.51
2023-02-16T15:12:38.972Z,6.34
2023-02-16T15:17:45.441Z,6.11
2023-02-16T15:23:00.023Z,6.18
2023-02-16T15:28:17.843Z,6.03
2023-02-16T15:33:22.459Z,6.18
2023-02-16T15:38:32.191Z,6.35
2023-02-16T15:43:47.281Z,6.29
2023-02-16T15:48:48.791Z,6.12
2023-02-16T15:53:56.122Z,6.25
2023-02-16T15:59:04.352Z,6.03
2023-02-16T16:04:21.442Z,6.05
2023-02-16T16:09:33.712Z,6.29
2023-02-16T16:14:40.183Z,6.27
2023-02-16T16:19:41.706Z,6.18
2023-02-16T16:24:43.272Z,6.31
2023-02-16T16:29:47.782Z,6.35
2023-02-16T16:34:50.102Z,6.29
2023-02-16T16:40:22.894Z,6.11
2023-02-16T16:45:42.349Z,6.29
2023-02-16T16:50:43.932Z,6.36
2023-02-16T16:55:45.484Z,6.50
2023-02-16T17:00:47.018Z,6.55
2023-02-16T17:05:48.583Z,6.34
2023-02-16T17:10:50.172Z,6.35
2023-02-16T17:16:00.776Z,6.29
2023-02-16T17:21:02.234Z,6.43
2023-02-16T17:26:03.953Z,6.40
2023-02-16T17:31:09.993Z,6.47
2023-02-16T17:36:14.443Z,6.38
2023-02-16T17:41:24.926Z,6.25
2023-02-16T17:46:26.464Z,6.25
2023-02-16T17:51:28.020Z,6.36
2023-02-16T17:56:32.159Z,6.23
2023-02-16T18:01:33.849Z,6.06
2023-02-16T18:06:36.699Z,6.04
2023-02-16T18:11:38.191Z,5.99
2023-02-16T18:16:39.861Z,6.10
2023-02-16T18:21:41.473Z,6.12
2023-02-16T18:26:42.932Z,6.16
2023-02-16T18:31:44.665Z,6.09
2023-02-16T18:36:46.162Z,5.82
2023-02-16T18:41:47.820Z,5.85
2023-02-16T18:46:49.314Z,5.91
2023-02-16T18:51:50.762Z,5.98
2023-02-16T18:56:52.620Z,6.11
2023-02-16T19:01:58.584Z,6.15
2023-02-16T19:07:00.049Z,6.04
2023-02-16T19:12:01.639Z,6.14
2023-02-16T19:17:03.798Z,6.26
2023-02-16T19:22:05.322Z,6.20
2023-02-16T19:27:06.747Z,6.13
2023-02-16T19:32:08.467Z,6.29
2023-02-16T19:37:10.004Z,6.12
2023-02-16T19:42:11.677Z,6.02
2023-02-16T19:47:13.240Z,6.07
2023-02-16T19:52:14.762Z,6.35
2023-02-16T19:57:16.487Z,6.22
2023-02-16T20:02:18.169Z,6.26
2023-02-16T20:07:19.723Z,6.37
2023-02-16T20:12:21.250Z,6.23
2023-02-16T20:17:22.721Z,6.16
2023-02-16T20:22:24.252Z,6.23
2023-02-16T20:27:26.401Z,5.92
2023-02-16T20:32:28.980Z,6.02
2023-02-16T20:37:31.740Z,5.94
2023-02-16T20:42:33.384Z,6.21
2023-02-16T20:47:34.890Z,6.07
2023-02-16T20:52:36.366Z,6.05
2023-02-16T20:57:38.159Z,5.96
2023-02-16T21:02:40.797Z,5.97
2023-02-16T21:07:42.751Z,6.28
2023-02-16T21:12:44.451Z,6.32
2023-02-16T21:17:45.961Z,6.30
2023-02-16T21:22:47.518Z,6.40
2023-02-16T21:27:49.019Z,6.36
2023-02-16T21:32:51.507Z,6.21
2023-02-16T21:37:53.147Z,6.22
2023-02-16T21:42:54.576Z,6.34
2023-02-16T21:47:56.169Z,6.40
2023-02-16T21:52:57.706Z,6.43
2023-02-16T21:57:59.236Z,6.36
2023-02-16T22:03:01.012Z,6.64
2023-02-16T22:08:02.682Z,6.50
2023-02-16T22:13:04.422Z,6.66
2023-02-16T22:18:06.241Z,6.75
2023-02-16T22:23:07.864Z,6.78
2023-02-16T22:28:09.370Z,6.60
2023-02-16T22:33:10.927Z,6.70
2023-02-16T22:38:12.723Z,6.83
2023-02-16T22:43:14.306Z,6.63
2023-02-16T22:48:16.079Z,6.91
2023-02-16T22:53:17.649Z,6.86
2023-02-16T22:58:19.229Z,6.97
2023-02-16T23:03:20.805Z,7.11
2023-02-16T23:08:22.994Z,7.09
2023-02-16T23:13:24.415Z,6.83
2023-02-16T23:18:26.072Z,7.09
2023-02-16T23:23:27.737Z,7.22
2023-02-16T23:28:29.439Z,7.19
2023-02-16T23:33:31.306Z,7.11
2023-02-16T23:38:32.836Z,7.14
2023-02-16T23:43:34.650Z,7.13
2023-02-16T23:48:36.454Z,7.18
2023-02-16T23:53:38.550Z,7.30
2023-02-16T23:58:42.311Z,7.27
